Terminal Aerodrome Forecast
Issued by NWS Wilmington, OH

Current Version | Previous Version | Graphics & Text | Print | Product List | Glossary On
Versions: 1 2 3 4 5 6 7 8 9 10 11 12 13 14 15 16
000
FTUS41 KILN 152300
TAFCMH
TAF
KCMH 152329Z 1600/1624 23006KT P6SM VCSH SCT040 OVC080
      TEMPO 1600/1603 -SHRA
     FM160400 32006KT P6SM VCSH OVC025
     FM160600 36006KT P6SM OVC012
     FM160800 36008KT 4SM BR OVC006
     FM161500 01008KT P6SM OVC012
     FM161700 01008KT P6SM BKN025
     FM161900 01008KT P6SM BKN035=

USA.gov is the U.S. government's official web portal to all federal, state and local government web resources and services.